Time;durP1;ratioP1;P1;durP2;ratioP2;P2;SDS_P1;SDS_P2;PMS_P1;PMS_P2;Temp;Humidity;BMP_temperature;BMP_pressure;BME280_temperature;BME280_humidity;BME280_pressure;Samples;Min_cycle;Max_cycle;Signal;HPM_P1;HPM_P2
2022/01/05 00:01:08;;;;;;;;;2.00;1.00;;;;;;;;6269561;22;30264;-85
2022/01/05 00:03:34;;;;;;;;;1.00;1.00;;;;;;;;6270341;22;29561;-87
2022/01/05 00:05:59;;;;;;;;;7.25;1.00;;;;;;;;6298563;22;28192;-86
2022/01/05 00:08:25;;;;;;;;;1.75;1.00;;;;;;;;6298061;22;28208;-87
2022/01/05 00:10:53;;;;;;;;;0.00;0.00;;;;;;;;6298714;22;28329;-86
2022/01/05 00:13:18;;;;;;;;;1.50;0.00;;;;;;;;6297683;22;28736;-87
2022/01/05 00:15:44;;;;;;;;;5.00;1.75;;;;;;;;6297960;22;28385;-86
2022/01/05 00:18:09;;;;;;;;;3.00;1.00;;;;;;;;6297075;22;28508;-86
2022/01/05 00:20:34;;;;;;;;;5.25;0.50;;;;;;;;6268440;22;29705;-87
2022/01/05 00:23:00;;;;;;;;;2.75;0.75;;;;;;;;6297774;22;28405;-87
2022/01/05 00:25:25;;;;;;;;;1.25;1.00;;;;;;;;6298596;22;28417;-86
2022/01/05 00:27:50;;;;;;;;;2.00;2.00;;;;;;;;6270605;22;28679;-86
2022/01/05 00:30:15;;;;;;;;;2.00;1.00;;;;;;;;6270064;22;29978;-86
2022/01/05 00:32:41;;;;;;;;;3.50;0.00;;;;;;;;6270463;22;28472;-87
2022/01/05 00:35:06;;;;;;;;;2.25;1.00;;;;;;;;6269923;22;28296;-86
2022/01/05 00:37:31;;;;;;;;;2.50;1.00;;;;;;;;6298038;22;28448;-87
2022/01/05 00:39:57;;;;;;;;;2.00;1.00;;;;;;;;6295406;22;9664;-87
2022/01/05 00:42:22;;;;;;;;;0.50;0.00;;;;;;;;6323579;22;10979;-87
2022/01/05 00:44:47;;;;;;;;;3.00;1.00;;;;;;;;6320069;22;28331;-86
2022/01/05 00:47:12;;;;;;;;;2.00;1.00;;;;;;;;6298126;22;28464;-86
2022/01/05 00:49:38;;;;;;;;;0.25;0.25;;;;;;;;6298248;22;28385;-87
2022/01/05 00:52:03;;;;;;;;;1.25;1.00;;;;;;;;6297902;22;28240;-87
2022/01/05 00:54:28;;;;;;;;;2.50;1.00;;;;;;;;6297792;22;28311;-87
2022/01/05 00:56:54;;;;;;;;;2.00;1.00;;;;;;;;6297180;22;28486;-86
2022/01/05 00:59:19;;;;;;;;;3.00;1.00;;;;;;;;6296317;22;28383;-87
2022/01/05 01:01:44;;;;;;;;;1.00;1.00;;;;;;;;6298099;22;28316;-86
2022/01/05 01:04:09;;;;;;;;;1.25;1.25;;;;;;;;6270273;22;28388;-86
2022/01/05 01:06:35;;;;;;;;;3.00;1.50;;;;;;;;6298118;22;28371;-86
2022/01/05 01:09:00;;;;;;;;;0.00;0.00;;;;;;;;6298650;22;28311;-86
2022/01/05 01:11:26;;;;;;;;;4.50;0.75;;;;;;;;6274538;22;28177;-86
2022/01/05 01:13:51;;;;;;;;;2.50;1.00;;;;;;;;6299613;22;28442;-87
2022/01/05 01:16:18;;;;;;;;;4.25;0.75;;;;;;;;6298541;22;28512;-87
2022/01/05 01:18:43;;;;;;;;;4.75;1.00;;;;;;;;6298683;22;28503;-87
2022/01/05 01:21:08;;;;;;;;;6.00;2.00;;;;;;;;6298081;22;28314;-87
2022/01/05 01:23:34;;;;;;;;;3.00;0.00;;;;;;;;6298567;22;28311;-87
2022/01/05 01:25:59;;;;;;;;;2.50;1.00;;;;;;;;6298259;22;28363;-87
2022/01/05 01:28:24;;;;;;;;;5.00;1.00;;;;;;;;6264873;22;29603;-87
2022/01/05 01:30:50;;;;;;;;;5.25;0.50;;;;;;;;6273193;22;45340;-87
2022/01/05 01:33:15;;;;;;;;;3.00;1.00;;;;;;;;6267490;22;28490;-87
2022/01/05 01:35:40;;;;;;;;;0.50;0.50;;;;;;;;6239371;22;28680;-87
2022/01/05 01:38:06;;;;;;;;;1.75;1.00;;;;;;;;6266991;22;29343;-87
2022/01/05 01:40:31;;;;;;;;;1.00;1.00;;;;;;;;6239739;22;28340;-86
2022/01/05 01:42:56;;;;;;;;;2.00;1.00;;;;;;;;6267280;22;28386;-87
2022/01/05 01:45:22;;;;;;;;;0.00;0.00;;;;;;;;6241077;22;28364;-87
2022/01/05 01:47:47;;;;;;;;;1.25;1.25;;;;;;;;6238888;22;30601;-87
2022/01/05 01:50:13;;;;;;;;;2.75;0.00;;;;;;;;6267942;22;28335;-87
2022/01/05 01:52:38;;;;;;;;;0.75;0.00;;;;;;;;6263660;22;28321;-87
2022/01/05 01:55:04;;;;;;;;;1.00;0.75;;;;;;;;6267140;22;28165;-87
2022/01/05 01:57:33;;;;;;;;;3.50;1.00;;;;;;;;6239156;22;29713;-87
2022/01/05 01:59:58;;;;;;;;;0.25;0.25;;;;;;;;6239916;22;28346;-87
2022/01/05 02:02:24;;;;;;;;;3.00;1.00;;;;;;;;6267250;22;28311;-87
2022/01/05 02:04:49;;;;;;;;;3.00;1.00;;;;;;;;6239593;22;28392;-87
2022/01/05 02:07:14;;;;;;;;;1.25;1.00;;;;;;;;6265938;22;28453;-87
2022/01/05 02:09:40;;;;;;;;;5.00;1.00;;;;;;;;6267122;22;28471;-87
2022/01/05 02:12:06;;;;;;;;;1.00;1.00;;;;;;;;6239226;22;28400;-87
2022/01/05 02:14:31;;;;;;;;;5.75;1.00;;;;;;;;6266935;22;28555;-87
2022/01/05 02:16:58;;;;;;;;;2.00;2.00;;;;;;;;6267067;22;28433;-87
2022/01/05 02:19:23;;;;;;;;;6.75;1.00;;;;;;;;6267692;22;28185;-87
2022/01/05 02:21:49;;;;;;;;;5.00;1.00;;;;;;;;6240699;22;28331;-87
2022/01/05 02:24:14;;;;;;;;;1.00;0.75;;;;;;;;6268816;22;28259;-86
2022/01/05 02:26:41;;;;;;;;;1.33;1.00;;;;;;;;6240828;22;29919;-86
2022/01/05 02:29:06;;;;;;;;;1.00;1.00;;;;;;;;6267827;22;28227;-86
2022/01/05 02:31:40;;;;;;;;;2.25;0.75;;;;;;;;6269082;22;28265;-87
2022/01/05 02:34:05;;;;;;;;;1.75;0.25;;;;;;;;6252740;22;45253;-87
2022/01/05 02:36:31;;;;;;;;;1.00;0.00;;;;;;;;6248079;22;45268;-86
2022/01/05 02:38:56;;;;;;;;;7.00;1.00;;;;;;;;6236666;22;44563;-87
2022/01/05 02:41:22;;;;;;;;;5.00;1.00;;;;;;;;6240550;22;28280;-86
2022/01/05 02:43:47;;;;;;;;;3.25;0.25;;;;;;;;6268545;22;28209;-86
2022/01/05 02:46:14;;;;;;;;;2.00;1.00;;;;;;;;6240683;22;29654;-86
2022/01/05 02:48:39;;;;;;;;;0.75;0.00;;;;;;;;6267844;22;28403;-86
2022/01/05 02:51:05;;;;;;;;;1.00;1.00;;;;;;;;6240541;22;28268;-86
2022/01/05 02:53:31;;;;;;;;;1.00;1.00;;;;;;;;6268070;22;28335;-86
2022/01/05 02:55:56;;;;;;;;;4.50;1.00;;;;;;;;6271375;22;28843;-86
2022/01/05 02:58:22;;;;;;;;;2.75;0.75;;;;;;;;6274919;22;28288;-87
2022/01/05 03:00:47;;;;;;;;;1.50;0.50;;;;;;;;6258720;22;28284;-87
2022/01/05 03:03:12;;;;;;;;;1.00;1.00;;;;;;;;6269967;22;45025;-87
2022/01/05 03:05:37;;;;;;;;;1.00;0.67;;;;;;;;6283863;22;27698;-87
2022/01/05 03:08:03;;;;;;;;;1.50;1.50;;;;;;;;6245946;22;45306;-87
2022/01/05 03:10:28;;;;;;;;;4.00;0.75;;;;;;;;6279098;22;27729;-86
2022/01/05 03:12:54;;;;;;;;;3.75;2.00;;;;;;;;6250879;22;27655;-87
2022/01/05 03:15:19;;;;;;;;;9.00;1.00;;;;;;;;6268390;22;28330;-87
2022/01/05 03:17:44;;;;;;;;;1.75;1.00;;;;;;;;6281036;22;28271;-86
2022/01/05 03:20:11;;;;;;;;;0.25;0.25;;;;;;;;6266651;22;8796;-86
2022/01/05 03:22:36;;;;;;;;;0.25;0.25;;;;;;;;6298153;22;8763;-86
2022/01/05 03:25:02;;;;;;;;;3.33;1.00;;;;;;;;6297952;22;8742;-85
2022/01/05 03:27:27;;;;;;;;;1.00;1.00;;;;;;;;6269797;22;9385;-86
2022/01/05 03:29:52;;;;;;;;;3.33;1.00;;;;;;;;6277042;22;28355;-85
2022/01/05 03:32:18;;;;;;;;;2.00;0.25;;;;;;;;6268957;22;28181;-86
2022/01/05 03:34:45;;;;;;;;;1.25;1.00;;;;;;;;6268883;22;29482;-86
2022/01/05 03:37:10;;;;;;;;;1.00;1.00;;;;;;;;6279315;22;27811;-87
2022/01/05 03:39:35;;;;;;;;;4.00;0.00;;;;;;;;6241323;22;28744;-86
2022/01/05 03:42:01;;;;;;;;;6.50;0.00;;;;;;;;6280739;22;28578;-86
2022/01/05 03:44:27;;;;;;;;;3.50;1.00;;;;;;;;6269332;22;29225;-86
2022/01/05 03:46:52;;;;;;;;;1.00;1.00;;;;;;;;6270580;22;28467;-86
2022/01/05 03:49:18;;;;;;;;;3.25;2.00;;;;;;;;6290384;22;27860;-86
2022/01/05 03:51:43;;;;;;;;;1.00;0.00;;;;;;;;6261432;22;29254;-85
2022/01/05 03:54:08;;;;;;;;;2.67;0.00;;;;;;;;6291615;22;28129;-85
2022/01/05 03:56:33;;;;;;;;;1.33;0.00;;;;;;;;6283947;22;27696;-85
2022/01/05 03:58:58;;;;;;;;;4.67;0.67;;;;;;;;6256505;22;27673;-86
2022/01/05 04:01:24;;;;;;;;;1.00;1.00;;;;;;;;6248137;22;45149;-85
2022/01/05 04:03:49;;;;;;;;;3.00;1.00;;;;;;;;6243322;22;46061;-86
2022/01/05 04:06:14;;;;;;;;;3.75;1.50;;;;;;;;6268548;22;42276;-86
2022/01/05 04:08:40;;;;;;;;;0.67;0.33;;;;;;;;6256501;22;45462;-86
2022/01/05 04:11:05;;;;;;;;;1.00;1.00;;;;;;;;6260326;22;44579;-86
2022/01/05 04:13:30;;;;;;;;;2.33;1.00;;;;;;;;6268182;22;28272;-86
2022/01/05 04:15:55;;;;;;;;;4.00;1.67;;;;;;;;6240058;22;28679;-86
2022/01/05 04:18:21;;;;;;;;;2.00;1.00;;;;;;;;6267859;22;28299;-85
2022/01/05 04:20:46;;;;;;;;;3.25;1.25;;;;;;;;6267557;22;28301;-86
2022/01/05 04:23:11;;;;;;;;;5.67;1.33;;;;;;;;6240710;22;29605;-85
2022/01/05 04:25:36;;;;;;;;;1.75;0.75;;;;;;;;6240021;22;28574;-86
2022/01/05 04:28:02;;;;;;;;;1.00;1.00;;;;;;;;6241817;22;45193;-85
2022/01/05 04:30:28;;;;;;;;;6.50;1.00;;;;;;;;6279449;22;45441;-86
2022/01/05 04:32:53;;;;;;;;;4.50;1.00;;;;;;;;6282947;22;45510;-86
2022/01/05 04:35:18;;;;;;;;;0.25;0.00;;;;;;;;6250800;22;45260;-86
2022/01/05 04:37:43;;;;;;;;;6.75;1.00;;;;;;;;6250955;22;45339;-85
2022/01/05 04:40:09;;;;;;;;;3.33;0.67;;;;;;;;6278599;22;45572;-86
2022/01/05 04:42:35;;;;;;;;;5.25;0.75;;;;;;;;6280361;22;46223;-86
2022/01/05 04:45:00;;;;;;;;;4.25;1.00;;;;;;;;6299056;22;28350;-86
2022/01/05 04:47:25;;;;;;;;;2.00;0.50;;;;;;;;6317044;22;28239;-86
2022/01/05 04:49:51;;;;;;;;;0.67;0.67;;;;;;;;6299059;22;28509;-86
2022/01/05 04:52:16;;;;;;;;;3.50;1.00;;;;;;;;6270637;22;28419;-86
2022/01/05 04:54:41;;;;;;;;;2.00;1.00;;;;;;;;6298559;22;28403;-86
2022/01/05 04:57:07;;;;;;;;;2.25;0.00;;;;;;;;6271487;22;28398;-86
2022/01/05 04:59:33;;;;;;;;;2.75;1.00;;;;;;;;6298951;22;28487;-86
2022/01/05 05:01:58;;;;;;;;;0.50;0.00;;;;;;;;6299021;22;28176;-86
2022/01/05 05:04:23;;;;;;;;;5.33;1.00;;;;;;;;6270709;22;28406;-86
2022/01/05 05:06:49;;;;;;;;;5.00;1.00;;;;;;;;6299839;22;28262;-86
2022/01/05 05:09:15;;;;;;;;;2.00;1.00;;;;;;;;6298103;22;28263;-86
2022/01/05 05:11:40;;;;;;;;;5.00;1.00;;;;;;;;6271463;22;30615;-86
2022/01/05 05:14:05;;;;;;;;;1.00;1.00;;;;;;;;6301710;22;28254;-85
2022/01/05 05:16:30;;;;;;;;;2.50;1.00;;;;;;;;6303730;22;28303;-86
2022/01/05 05:18:56;;;;;;;;;5.00;0.00;;;;;;;;6303820;22;35625;-85
2022/01/05 05:21:21;;;;;;;;;3.25;1.00;;;;;;;;6298104;22;28524;-86
2022/01/05 05:23:46;;;;;;;;;1.00;0.33;;;;;;;;6270712;22;29693;-86
2022/01/05 05:26:11;;;;;;;;;3.67;1.33;;;;;;;;6298614;22;28296;-86
2022/01/05 05:28:37;;;;;;;;;5.00;1.00;;;;;;;;6297988;22;28170;-86
2022/01/05 05:31:02;;;;;;;;;1.00;0.25;;;;;;;;6298808;22;28342;-86
2022/01/05 05:33:27;;;;;;;;;2.00;1.00;;;;;;;;6270233;22;28311;-86
2022/01/05 05:35:53;;;;;;;;;2.00;1.25;;;;;;;;6300521;22;28354;-86
2022/01/05 05:38:18;;;;;;;;;4.00;1.00;;;;;;;;6298412;22;28380;-86
2022/01/05 05:40:46;;;;;;;;;2.75;1.25;;;;;;;;6298906;22;28579;-85
2022/01/05 05:43:12;;;;;;;;;3.50;1.00;;;;;;;;6296641;22;28436;-87
2022/01/05 05:45:37;;;;;;;;;1.00;1.00;;;;;;;;6298071;22;28370;-87
2022/01/05 05:48:03;;;;;;;;;1.50;1.00;;;;;;;;6270093;22;28656;-86
2022/01/05 05:50:29;;;;;;;;;1.00;1.00;;;;;;;;6297167;22;30614;-86
2022/01/05 05:52:54;;;;;;;;;2.00;0.75;;;;;;;;6299329;22;28171;-86
2022/01/05 05:55:20;;;;;;;;;1.00;0.25;;;;;;;;6269202;22;28395;-84
2022/01/05 05:57:45;;;;;;;;;1.00;1.00;;;;;;;;6270059;22;28452;-85
2022/01/05 06:00:11;;;;;;;;;4.50;1.25;;;;;;;;6288532;22;45268;-86
2022/01/05 06:02:36;;;;;;;;;3.00;1.00;;;;;;;;6248288;22;45623;-85
2022/01/05 06:05:02;;;;;;;;;5.00;1.00;;;;;;;;6277423;22;45176;-86
2022/01/05 06:07:27;;;;;;;;;1.00;1.00;;;;;;;;6255240;22;46037;-86
2022/01/05 06:09:52;;;;;;;;;2.00;1.00;;;;;;;;6297337;22;28380;-88
2022/01/05 06:12:18;;;;;;;;;3.00;0.75;;;;;;;;6269587;22;28604;-86
2022/01/05 06:14:43;;;;;;;;;4.00;1.00;;;;;;;;6297911;22;28553;-86
2022/01/05 06:17:08;;;;;;;;;0.00;0.00;;;;;;;;6270365;22;28600;-86
2022/01/05 06:19:33;;;;;;;;;5.00;3.33;;;;;;;;6297693;22;28397;-85
2022/01/05 06:21:59;;;;;;;;;13.00;10.67;;;;;;;;6297750;22;28426;-86
2022/01/05 06:24:24;;;;;;;;;12.00;6.00;;;;;;;;6298147;22;28307;-86
2022/01/05 06:26:51;;;;;;;;;2.50;2.00;;;;;;;;6288361;22;45303;-86
2022/01/05 06:29:17;;;;;;;;;2.25;1.00;;;;;;;;6277050;22;45344;-87
2022/01/05 06:31:42;;;;;;;;;0.00;0.00;;;;;;;;6277767;22;45395;-86
2022/01/05 06:34:10;;;;;;;;;3.50;1.00;;;;;;;;6277604;22;45374;-87
2022/01/05 06:36:36;;;;;;;;;0.00;0.00;;;;;;;;6275472;22;45533;-86
2022/01/05 06:39:02;;;;;;;;;2.50;1.50;;;;;;;;6254870;22;45209;-84
2022/01/05 06:41:27;;;;;;;;;3.00;1.00;;;;;;;;6269988;22;28578;-85
2022/01/05 06:43:52;;;;;;;;;2.75;1.75;;;;;;;;6296943;22;28241;-85
2022/01/05 06:46:18;;;;;;;;;0.00;0.00;;;;;;;;6295081;22;44761;-84
2022/01/05 06:48:46;;;;;;;;;0.00;0.00;;;;;;;;6296226;22;28382;-83
2022/01/05 06:51:11;;;;;;;;;3.25;1.00;;;;;;;;6268728;22;28588;-85
2022/01/05 06:53:37;;;;;;;;;3.25;2.00;;;;;;;;6297103;22;28449;-85
2022/01/05 06:56:03;;;;;;;;;3.75;1.00;;;;;;;;6269539;22;28560;-85
2022/01/05 06:58:31;;;;;;;;;2.50;1.00;;;;;;;;6297509;22;28255;-85
2022/01/05 07:00:56;;;;;;;;;1.25;1.25;;;;;;;;6297824;22;28271;-87
2022/01/05 07:03:22;;;;;;;;;5.33;2.00;;;;;;;;6269933;22;28376;-85
2022/01/05 07:05:47;;;;;;;;;5.00;1.00;;;;;;;;6298913;22;28572;-86
2022/01/05 07:08:36;;;;;;;;;1.00;1.00;;;;;;;;6270982;22;30771;-84
2022/01/05 07:11:01;;;;;;;;;1.00;0.75;;;;;;;;6245757;22;29410;-85
2022/01/05 07:13:26;;;;;;;;;1.00;1.00;;;;;;;;6270958;22;28445;-84
2022/01/05 07:15:52;;;;;;;;;2.33;0.33;;;;;;;;6299041;22;28426;-84
2022/01/05 07:18:17;;;;;;;;;3.50;1.00;;;;;;;;6298055;22;29081;-84
2022/01/05 07:20:42;;;;;;;;;4.33;1.00;;;;;;;;6269879;22;28862;-84
2022/01/05 07:23:09;;;;;;;;;8.67;1.00;;;;;;;;6270855;22;28342;-85
2022/01/05 07:25:34;;;;;;;;;1.00;1.00;;;;;;;;6299109;22;28240;-85
2022/01/05 07:27:59;;;;;;;;;7.00;1.67;;;;;;;;6270344;22;29980;-85
2022/01/05 07:30:24;;;;;;;;;4.33;2.00;;;;;;;;6298589;22;28336;-84
2022/01/05 07:32:50;;;;;;;;;6.75;1.25;;;;;;;;6270932;22;28288;-84
2022/01/05 07:35:15;;;;;;;;;7.25;0.75;;;;;;;;6270512;22;29263;-84
2022/01/05 07:37:40;;;;;;;;;1.50;0.50;;;;;;;;6270363;22;30758;-84
2022/01/05 07:40:09;;;;;;;;;1.00;1.00;;;;;;;;6294857;22;28601;-85
2022/01/05 07:42:35;;;;;;;;;5.25;0.75;;;;;;;;6296005;22;28371;-88
2022/01/05 07:45:01;;;;;;;;;3.75;1.25;;;;;;;;6269298;22;28733;-85
2022/01/05 07:47:27;;;;;;;;;3.50;1.00;;;;;;;;6296473;22;28497;-85
2022/01/05 07:49:52;;;;;;;;;4.75;1.00;;;;;;;;6296517;22;28623;-85
2022/01/05 07:52:17;;;;;;;;;6.50;1.00;;;;;;;;6269177;22;28442;-85
2022/01/05 07:54:42;;;;;;;;;3.00;1.50;;;;;;;;6261776;22;44741;-85
2022/01/05 07:57:08;;;;;;;;;5.00;1.33;;;;;;;;6277068;22;46226;-85
2022/01/05 07:59:33;;;;;;;;;1.50;1.00;;;;;;;;6277188;22;45239;-85
2022/01/05 08:01:58;;;;;;;;;6.00;2.50;;;;;;;;6276526;22;45387;-85
2022/01/05 08:04:24;;;;;;;;;6.67;1.00;;;;;;;;6248603;22;45258;-85
2022/01/05 08:06:49;;;;;;;;;1.00;1.00;;;;;;;;6275991;22;45983;-85
2022/01/05 08:09:14;;;;;;;;;7.33;1.00;;;;;;;;6249465;22;45903;-85
2022/01/05 08:11:39;;;;;;;;;3.00;1.00;;;;;;;;6276449;22;45367;-85
2022/01/05 08:14:05;;;;;;;;;1.00;1.00;;;;;;;;6249182;22;45241;-85
2022/01/05 08:16:30;;;;;;;;;1.50;1.00;;;;;;;;6275652;22;46193;-85
2022/01/05 08:18:55;;;;;;;;;1.25;1.00;;;;;;;;6247065;22;45292;-85
2022/01/05 08:21:22;;;;;;;;;3.50;2.00;;;;;;;;6274276;22;45354;-84
2022/01/05 08:23:47;;;;;;;;;3.25;2.00;;;;;;;;6275849;22;45624;-85
2022/01/05 08:26:12;;;;;;;;;4.50;4.50;;;;;;;;6276844;22;46357;-86
2022/01/05 08:28:38;;;;;;;;;2.50;2.00;;;;;;;;6275903;22;45458;-85
2022/01/05 08:31:03;;;;;;;;;2.00;1.00;;;;;;;;6289329;22;45400;-85
2022/01/05 08:33:28;;;;;;;;;2.00;1.00;;;;;;;;6254249;22;46013;-85
2022/01/05 08:35:54;;;;;;;;;7.75;1.00;;;;;;;;6259442;22;45395;-85
2022/01/05 08:38:19;;;;;;;;;3.75;0.50;;;;;;;;6260163;22;44748;-85
2022/01/05 08:40:45;;;;;;;;;4.00;2.00;;;;;;;;6296250;22;28492;-85
2022/01/05 08:43:11;;;;;;;;;2.00;1.50;;;;;;;;6269316;22;28528;-85
2022/01/05 08:45:36;;;;;;;;;7.25;2.00;;;;;;;;6271474;22;28568;-84
2022/01/05 08:48:02;;;;;;;;;6.25;3.00;;;;;;;;6259436;22;45408;-85
2022/01/05 08:50:28;;;;;;;;;2.00;1.00;;;;;;;;6268114;22;28410;-85
2022/01/05 08:52:54;;;;;;;;;2.00;2.00;;;;;;;;6268921;22;28570;-85
2022/01/05 08:55:20;;;;;;;;;3.00;0.00;;;;;;;;6307829;22;28951;-85
2022/01/05 08:57:46;;;;;;;;;5.25;2.00;;;;;;;;6295722;22;28180;-85
2022/01/05 09:00:11;;;;;;;;;5.00;1.00;;;;;;;;6269414;22;28499;-85
2022/01/05 09:02:37;;;;;;;;;1.25;1.25;;;;;;;;6268515;22;28296;-85
2022/01/05 09:05:03;;;;;;;;;5.75;2.00;;;;;;;;6296191;22;28677;-85
2022/01/05 09:07:28;;;;;;;;;8.75;1.25;;;;;;;;6296331;22;28331;-85
2022/01/05 09:09:53;;;;;;;;;5.00;1.67;;;;;;;;6268626;22;28561;-85
2022/01/05 09:12:19;;;;;;;;;5.00;1.00;;;;;;;;6297461;22;28260;-85
2022/01/05 09:14:44;;;;;;;;;9.25;1.00;;;;;;;;6297841;22;28459;-85
2022/01/05 09:17:09;;;;;;;;;0.67;0.67;;;;;;;;6270316;22;28394;-85
2022/01/05 09:19:35;;;;;;;;;5.67;1.00;;;;;;;;6297654;22;28260;-82
2022/01/05 09:22:00;;;;;;;;;1.75;1.00;;;;;;;;6298443;22;28461;-83
2022/01/05 09:24:26;;;;;;;;;1.50;0.00;;;;;;;;6298919;22;28473;-84
2022/01/05 09:26:51;;;;;;;;;3.00;0.50;;;;;;;;6298241;22;28464;-84
2022/01/05 09:29:18;;;;;;;;;5.00;1.75;;;;;;;;6298099;22;28382;-84
2022/01/05 09:31:43;;;;;;;;;2.00;1.00;;;;;;;;6297376;22;28449;-84
2022/01/05 09:34:08;;;;;;;;;5.75;3.00;;;;;;;;6298433;22;28417;-84
2022/01/05 09:36:38;;;;;;;;;3.00;2.00;;;;;;;;6298653;22;27812;-84
2022/01/05 09:41:57;;;;;;;;;4.75;2.00;;;;;;;;6291336;22;45280;-84
2022/01/05 09:44:25;;;;;;;;;3.50;2.00;;;;;;;;6269993;22;28701;-84
2022/01/05 09:47:00;;;;;;;;;9.25;2.00;;;;;;;;6270820;22;28574;-84
2022/01/05 09:49:28;;;;;;;;;3.75;2.00;;;;;;;;6270216;22;28278;-84
2022/01/05 09:51:55;;;;;;;;;8.75;2.25;;;;;;;;6298770;22;28212;-84
2022/01/05 09:54:21;;;;;;;;;5.50;2.00;;;;;;;;6298737;22;28267;-84
2022/01/05 09:56:46;;;;;;;;;5.00;2.00;;;;;;;;6298382;22;28263;-84
2022/01/05 09:59:11;;;;;;;;;2.00;1.00;;;;;;;;6298101;22;28189;-84
2022/01/05 10:01:37;;;;;;;;;5.75;1.50;;;;;;;;6299268;22;28163;-85
2022/01/05 10:04:03;;;;;;;;;3.75;2.00;;;;;;;;6298335;22;29050;-84
2022/01/05 10:06:30;;;;;;;;;3.00;1.00;;;;;;;;6270462;22;28279;-85
2022/01/05 10:08:55;;;;;;;;;10.75;2.75;;;;;;;;6270172;22;28347;-84
2022/01/05 10:11:22;;;;;;;;;6.25;2.00;;;;;;;;6298357;22;28572;-85
2022/01/05 10:13:48;;;;;;;;;5.25;1.25;;;;;;;;6298210;22;28386;-84
2022/01/05 10:16:14;;;;;;;;;6.25;2.25;;;;;;;;6270345;22;29551;-84
2022/01/05 10:18:44;;;;;;;;;3.00;2.25;;;;;;;;6297700;22;28391;-84
2022/01/05 10:21:12;;;;;;;;;3.00;2.00;;;;;;;;6297899;22;28363;-84
2022/01/05 10:23:45;;;;;;;;;4.50;2.75;;;;;;;;6297990;22;28395;-84
2022/01/05 10:26:38;;;;;;;;;4.25;2.00;;;;;;;;6298130;22;28331;-84
2022/01/05 10:29:05;;;;;;;;;2.00;1.50;;;;;;;;6291294;22;28481;-84
2022/01/05 10:31:38;;;;;;;;;11.00;2.75;;;;;;;;6298133;22;28400;-84
2022/01/05 10:34:32;;;;;;;;;2.25;2.00;;;;;;;;6297950;22;28632;-84
2022/01/05 10:37:05;;;;;;;;;1.50;1.50;;;;;;;;6236616;22;28699;-84
2022/01/05 10:39:31;;;;;;;;;8.00;4.50;;;;;;;;6298343;22;28382;-84
2022/01/05 10:42:03;;;;;;;;;2.00;2.00;;;;;;;;6271098;22;28322;-84
2022/01/05 10:44:28;;;;;;;;;5.75;2.25;;;;;;;;6271095;22;28393;-84
2022/01/05 10:46:55;;;;;;;;;3.75;2.75;;;;;;;;6299404;22;28186;-85
2022/01/05 10:49:26;;;;;;;;;4.25;2.00;;;;;;;;6298914;22;28353;-85
2022/01/05 10:51:52;;;;;;;;;5.25;2.00;;;;;;;;6271743;22;28720;-85
2022/01/05 10:54:22;;;;;;;;;9.00;2.00;;;;;;;;6299418;22;28366;-85
2022/01/05 10:56:48;;;;;;;;;4.00;2.50;;;;;;;;6271462;22;29230;-85
2022/01/05 10:59:16;;;;;;;;;7.25;2.25;;;;;;;;6278334;22;28467;-84
2022/01/05 11:01:42;;;;;;;;;4.25;1.00;;;;;;;;6313923;22;28418;-85
2022/01/05 11:04:14;;;;;;;;;2.75;1.75;;;;;;;;6284104;22;30334;-85
2022/01/05 11:06:52;;;;;;;;;3.00;2.00;;;;;;;;6306721;22;37294;-85
2022/01/05 11:09:19;;;;;;;;;6.50;2.00;;;;;;;;6271590;22;28497;-85
2022/01/05 11:11:46;;;;;;;;;3.25;3.25;;;;;;;;6271385;22;29470;-85
2022/01/05 11:14:13;;;;;;;;;6.00;4.75;;;;;;;;6271366;22;29828;-85
2022/01/05 11:16:42;;;;;;;;;4.75;2.50;;;;;;;;6299317;22;28330;-85
2022/01/05 11:19:12;;;;;;;;;4.75;2.00;;;;;;;;6299331;22;28404;-85
2022/01/05 11:21:43;;;;;;;;;2.50;2.00;;;;;;;;6286198;22;29387;-83
2022/01/05 11:24:09;;;;;;;;;2.00;2.00;;;;;;;;6294763;22;45241;-83
2022/01/05 11:26:35;;;;;;;;;7.00;3.00;;;;;;;;6275903;22;45257;-83
2022/01/05 11:29:03;;;;;;;;;4.00;2.25;;;;;;;;6247763;22;45383;-85
2022/01/05 11:31:36;;;;;;;;;4.25;3.00;;;;;;;;6276441;22;45595;-85
2022/01/05 11:34:22;;;;;;;;;2.00;2.00;;;;;;;;6276101;22;46403;-83
2022/01/05 11:36:50;;;;;;;;;3.25;3.00;;;;;;;;6249715;22;45182;-83
2022/01/05 11:39:15;;;;;;;;;4.25;4.00;;;;;;;;6246402;22;45375;-82
2022/01/05 11:41:43;;;;;;;;;6.75;3.00;;;;;;;;6275774;22;45295;-83
2022/01/05 11:44:17;;;;;;;;;5.25;4.00;;;;;;;;6274745;22;46290;-84
2022/01/05 11:46:45;;;;;;;;;5.75;5.00;;;;;;;;6248087;22;45937;-85
2022/01/05 11:49:12;;;;;;;;;4.00;4.00;;;;;;;;6247686;22;45414;-86
2022/01/05 11:51:40;;;;;;;;;4.75;3.00;;;;;;;;6247316;22;45563;-85
2022/01/05 11:54:12;;;;;;;;;5.00;3.00;;;;;;;;6276282;22;45330;-86
2022/01/05 11:56:44;;;;;;;;;6.25;4.75;;;;;;;;6248698;22;45228;-86
2022/01/05 12:00:02;;;;;;;;;6.50;5.00;;;;;;;;6275910;22;45363;-83
2022/01/05 12:02:21;;;;;;;;;3.75;2.00;;;;;;;;6273022;22;45347;-84
2022/01/05 12:04:54;;;;;;;;;3.75;2.75;;;;;;;;6248808;22;46254;-83
2022/01/05 12:07:37;;;;;;;;;8.25;4.75;;;;;;;;6276523;22;45544;-82
2022/01/05 12:10:11;;;;;;;;;5.50;4.00;;;;;;;;6277057;22;45338;-84
2022/01/05 12:12:36;;;;;;;;;6.00;5.00;;;;;;;;6253064;22;45411;-83
2022/01/05 12:15:03;;;;;;;;;4.00;3.75;;;;;;;;6298682;22;28455;-83
2022/01/05 12:17:32;;;;;;;;;7.25;4.75;;;;;;;;6297344;22;28311;-84
2022/01/05 12:19:57;;;;;;;;;8.00;5.50;;;;;;;;6269675;22;28467;-84
2022/01/05 12:22:32;;;;;;;;;17.67;10.00;;;;;;;;6269108;22;28575;-85
2022/01/05 12:25:39;;;;;;;;;14.00;9.50;;;;;;;;6286128;22;46535;-85
2022/01/05 13:57:45;;;;;;;;;2.75;1.50;;;;;;;;6249451;22;28983;-88
2022/01/05 14:07:08;;;;;;;;;10.00;4.00;;;;;;;;6266808;22;28609;-87
2022/01/05 14:09:33;;;;;;;;;4.75;4.75;;;;;;;;6208181;22;28355;-82
2022/01/05 14:11:59;;;;;;;;;3.25;1.50;;;;;;;;6235916;22;28328;-82
2022/01/05 14:14:24;;;;;;;;;7.00;3.00;;;;;;;;6236687;22;28599;-83
2022/01/05 14:16:50;;;;;;;;;2.75;2.75;;;;;;;;6210029;22;28379;-83
2022/01/05 14:19:21;;;;;;;;;6.75;3.25;;;;;;;;6237452;22;28414;-83
2022/01/05 14:21:48;;;;;;;;;4.25;3.00;;;;;;;;6235152;22;29619;-83
2022/01/05 14:29:36;;;;;;;;;7.75;2.00;;;;;;;;6255614;22;45903;-84
2022/01/05 14:32:12;;;;;;;;;4.75;3.25;;;;;;;;6267886;22;28332;-83
2022/01/05 14:34:52;;;;;;;;;2.25;2.25;;;;;;;;6298202;22;28405;-83
2022/01/05 14:37:18;;;;;;;;;5.00;3.50;;;;;;;;6298346;22;28358;-83
2022/01/05 14:39:48;;;;;;;;;5.00;2.00;;;;;;;;6298498;22;28378;-83
2022/01/05 14:42:14;;;;;;;;;7.00;4.00;;;;;;;;6270580;22;28462;-83
2022/01/05 14:44:42;;;;;;;;;6.00;4.75;;;;;;;;6298342;22;28618;-82
2022/01/05 14:47:19;;;;;;;;;7.50;3.00;;;;;;;;6270757;22;29731;-82
2022/01/05 14:49:50;;;;;;;;;5.00;3.25;;;;;;;;6269749;22;28291;-81
2022/01/05 14:52:47;;;;;;;;;;;;;;;;;;;;;
2022/01/05 14:56:18;;;;;;;;;3.75;2.00;;;;;;;;6296958;22;58312;-89
2022/01/05 14:58:18;;;;;;;;;7.25;3.00;;;;;;;;6251287;22;29229;-87
2022/01/05 15:04:00;;;;;;;;;2.50;2.50;;;;;;;;6232688;22;28421;-86
2022/01/05 17:06:57;;;;;;;;;;;;;;;;;;;;;
2022/01/05 17:10:08;;;;;;;;;;;;;;;;;;;;;
2022/01/05 17:13:15;;;;;;;;;;;;;;;;;;;;;
2022/01/05 17:28:02;;;;;;;;;;;;;;;;;;;;;
2022/01/05 17:40:09;;;;;;;;;19.00;10.75;;;;;;;;6222502;22;28459;-88
2022/01/05 17:42:51;;;;;;;;;10.00;7.00;;;;;;;;6264921;22;28417;-89
2022/01/05 17:45:21;;;;;;;;;12.00;7.00;;;;;;;;6267097;22;29453;-88
2022/01/05 17:47:47;;;;;;;;;11.25;9.25;;;;;;;;6238120;22;28565;-88
2022/01/05 17:50:12;;;;;;;;;10.00;7.00;;;;;;;;6238563;22;28446;-84
2022/01/05 17:52:37;;;;;;;;;8.00;6.33;;;;;;;;6263743;22;28426;-86
2022/01/05 17:55:03;;;;;;;;;13.25;8.75;;;;;;;;6265739;22;28356;-86
2022/01/05 17:57:28;;;;;;;;;8.50;6.75;;;;;;;;6264794;22;28407;-85
2022/01/05 17:59:53;;;;;;;;;12.00;8.00;;;;;;;;6265822;22;28431;-86
2022/01/05 18:02:19;;;;;;;;;12.25;8.00;;;;;;;;6267201;22;28288;-86
2022/01/05 18:04:44;;;;;;;;;13.00;9.75;;;;;;;;6263684;22;29684;-86
2022/01/05 18:07:09;;;;;;;;;9.25;7.00;;;;;;;;6289975;22;8881;-86
2022/01/05 18:09:37;;;;;;;;;15.00;9.00;;;;;;;;6290802;22;8801;-86
2022/01/05 18:12:03;;;;;;;;;9.75;7.00;;;;;;;;6262226;22;8739;-85
2022/01/05 18:14:28;;;;;;;;;12.00;7.00;;;;;;;;6291845;22;8762;-86
2022/01/05 18:16:53;;;;;;;;;11.00;8.67;;;;;;;;6293491;22;8833;-85
2022/01/05 18:19:20;;;;;;;;;15.00;7.00;;;;;;;;6308412;22;10923;-85
2022/01/05 18:21:46;;;;;;;;;16.50;7.75;;;;;;;;6304454;22;9633;-86
2022/01/05 18:24:14;;;;;;;;;9.50;9.50;;;;;;;;6277345;22;8757;-86
2022/01/05 18:26:40;;;;;;;;;11.25;8.00;;;;;;;;6278281;22;8772;-85
2022/01/05 18:29:06;;;;;;;;;13.50;10.50;;;;;;;;6277236;22;8750;-82
2022/01/05 18:31:32;;;;;;;;;17.25;9.75;;;;;;;;6292108;22;8735;-85
2022/01/05 18:33:57;;;;;;;;;15.25;12.50;;;;;;;;6291522;22;8778;-85
2022/01/05 18:36:22;;;;;;;;;11.00;9.00;;;;;;;;6263473;22;9564;-84
2022/01/05 18:38:48;;;;;;;;;14.00;11.00;;;;;;;;6292524;22;8859;-84
2022/01/05 18:41:14;;;;;;;;;14.50;12.00;;;;;;;;6263434;22;8750;-84
2022/01/05 18:43:40;;;;;;;;;17.50;10.75;;;;;;;;6290791;22;8762;-84
2022/01/05 18:46:06;;;;;;;;;5.75;0.25;;;;;;;;6287683;22;8788;-84
2022/01/05 18:48:31;;;;;;;;;19.00;13.25;;;;;;;;6287025;22;8715;-85
2022/01/05 18:50:56;;;;;;;;;21.25;11.25;;;;;;;;6291971;22;8770;-85
2022/01/05 18:53:21;;;;;;;;;11.67;9.67;;;;;;;;6291806;22;8747;-86
2022/01/05 18:55:47;;;;;;;;;24.00;10.00;;;;;;;;6263555;22;10051;-85
2022/01/05 18:58:13;;;;;;;;;14.25;10.50;;;;;;;;6290891;22;9568;-85